Time;durP1;ratioP1;P1;durP2;ratioP2;P2;SDS_P1;SDS_P2;PMS_P1;PMS_P2;Temp;Humidity;BMP_temperature;BMP_pressure;BME280_temperature;BME280_humidity;BME280_pressure;Samples;Min_cycle;Max_cycle;Signal;HPM_P1;HPM_P2
2022/12/10 00:02:03;;;;;;;0.20;0.10;;;;;;;;;;4963074;28;20041;-78
2022/12/10 00:04:29;;;;;;;0.20;0.10;;;;;;;;;;4960836;28;20064;-81
2022/12/10 00:06:55;;;;;;;0.20;0.20;;;;;;;;;;4996235;28;20421;-79
2022/12/10 00:09:21;;;;;;;0.20;0.10;;;;;;;;;;4962568;28;20053;-80
2022/12/10 00:11:48;;;;;;;0.20;0.10;;;;;;;;;;4998325;28;20042;-80
2022/12/10 00:14:14;;;;;;;0.40;0.40;;;;;;;;;;4979209;28;20120;-81
2022/12/10 00:16:40;;;;;;;0.20;0.10;;;;;;;;;;4977325;28;20061;-81
2022/12/10 00:19:06;;;;;;;0.20;0.10;;;;;;;;;;4999941;28;20084;-80
2022/12/10 00:21:34;;;;;;;0.20;0.10;;;;;;;;;;4979088;28;20046;-81
2022/12/10 00:24:00;;;;;;;0.20;0.17;;;;;;;;;;4962603;28;20045;-81
2022/12/10 00:26:31;;;;;;;0.20;0.10;;;;;;;;;;4975748;28;20044;-80
2022/12/10 00:28:57;;;;;;;0.20;0.10;;;;;;;;;;4993889;28;20129;-80
2022/12/10 00:31:25;;;;;;;0.20;0.10;;;;;;;;;;4981564;28;20127;-80
2022/12/10 00:33:53;;;;;;;0.20;0.17;;;;;;;;;;4991976;28;20038;-79
2022/12/10 00:36:21;;;;;;;1.42;1.33;;;;;;;;;;4976964;28;22027;-80
2022/12/10 00:38:48;;;;;;;0.20;0.10;;;;;;;;;;4964635;28;20059;-80
2022/12/10 00:41:14;;;;;;;0.32;0.32;;;;;;;;;;4960681;28;20096;-80
2022/12/10 00:43:41;;;;;;;0.20;0.10;;;;;;;;;;4979361;28;20042;-80
2022/12/10 00:46:07;;;;;;;0.35;0.30;;;;;;;;;;4964625;28;20053;-80
2022/12/10 00:48:33;;;;;;;0.20;0.10;;;;;;;;;;4964767;28;20042;-79
2022/12/10 00:51:04;;;;;;;0.20;0.10;;;;;;;;;;4958707;28;20064;-80
2022/12/10 00:53:31;;;;;;;0.20;0.10;;;;;;;;;;4975923;28;20416;-79
2022/12/10 00:55:58;;;;;;;0.20;0.10;;;;;;;;;;4961646;28;20065;-79
2022/12/10 00:58:26;;;;;;;0.20;0.10;;;;;;;;;;4978994;28;20519;-79
2022/12/10 01:00:52;;;;;;;0.20;0.10;;;;;;;;;;4971873;28;20740;-80
2022/12/10 01:03:18;;;;;;;0.20;0.10;;;;;;;;;;4979995;28;20065;-79
2022/12/10 01:05:44;;;;;;;0.20;0.10;;;;;;;;;;4964498;28;20050;-79
2022/12/10 01:08:10;;;;;;;0.20;0.10;;;;;;;;;;4976278;28;20034;-79
2022/12/10 01:10:36;;;;;;;0.20;0.10;;;;;;;;;;4978437;28;20156;-81
2022/12/10 01:13:02;;;;;;;0.47;0.43;;;;;;;;;;4974762;28;20037;-80
2022/12/10 01:15:28;;;;;;;0.20;0.10;;;;;;;;;;4965384;28;20121;-80
2022/12/10 01:17:55;;;;;;;0.85;0.85;;;;;;;;;;4977865;28;20496;-81
2022/12/10 01:20:21;;;;;;;0.20;0.10;;;;;;;;;;4976333;28;20053;-81
2022/12/10 01:22:47;;;;;;;0.20;0.20;;;;;;;;;;4995250;28;20124;-80
2022/12/10 01:25:13;;;;;;;0.20;0.10;;;;;;;;;;4980251;28;20500;-80
2022/12/10 01:27:39;;;;;;;0.68;0.68;;;;;;;;;;4980627;28;20048;-80
2022/12/10 01:30:05;;;;;;;0.20;0.10;;;;;;;;;;4992360;28;20053;-80
2022/12/10 01:32:31;;;;;;;0.20;0.10;;;;;;;;;;4993734;28;20557;-80
2022/12/10 01:34:57;;;;;;;0.20;0.10;;;;;;;;;;4979056;28;20041;-80
2022/12/10 01:37:23;;;;;;;0.20;0.10;;;;;;;;;;4980857;28;20121;-80
2022/12/10 01:39:49;;;;;;;0.20;0.10;;;;;;;;;;4980822;28;20719;-80
2022/12/10 01:42:15;;;;;;;0.20;0.10;;;;;;;;;;4980132;28;20171;-80
2022/12/10 01:44:41;;;;;;;0.20;0.10;;;;;;;;;;4988918;28;20165;-79
2022/12/10 01:47:07;;;;;;;0.20;0.10;;;;;;;;;;4988841;28;20156;-79
2022/12/10 01:49:35;;;;;;;0.20;0.10;;;;;;;;;;4984450;28;20050;-79
2022/12/10 01:52:01;;;;;;;0.20;0.10;;;;;;;;;;4983894;28;20099;-79
2022/12/10 01:54:29;;;;;;;0.20;0.10;;;;;;;;;;4981268;28;20072;-79
2022/12/10 01:56:58;;;;;;;0.20;0.10;;;;;;;;;;5002774;28;20097;-80
2022/12/10 01:59:25;;;;;;;0.20;0.10;;;;;;;;;;4980228;28;20050;-80
2022/12/10 02:01:54;;;;;;;0.20;0.10;;;;;;;;;;4979944;28;20057;-80
2022/12/10 02:04:31;;;;;;;0.20;0.10;;;;;;;;;;4984606;28;20389;-80
2022/12/10 02:07:01;;;;;;;0.20;0.10;;;;;;;;;;4984824;28;20149;-80
2022/12/10 02:09:45;;;;;;;0.20;0.10;;;;;;;;;;4982552;28;20049;-79
2022/12/10 02:12:27;;;;;;;0.20;0.10;;;;;;;;;;4985314;28;20038;-79
2022/12/10 02:15:00;;;;;;;0.20;0.10;;;;;;;;;;4996715;28;20045;-80
2022/12/10 02:17:35;;;;;;;0.20;0.10;;;;;;;;;;4975814;28;20104;-80
2022/12/10 02:20:01;;;;;;;0.20;0.10;;;;;;;;;;4978208;28;20096;-80
2022/12/10 02:22:29;;;;;;;0.20;0.10;;;;;;;;;;4959240;28;20040;-80
2022/12/10 02:24:56;;;;;;;0.20;0.10;;;;;;;;;;4973814;28;20041;-80
2022/12/10 02:27:39;;;;;;;0.20;0.10;;;;;;;;;;4992023;28;20404;-80
2022/12/10 02:30:06;;;;;;;0.20;0.10;;;;;;;;;;4976923;28;20050;-79
2022/12/10 02:32:33;;;;;;;0.20;0.10;;;;;;;;;;4976504;28;20046;-79
2022/12/10 02:35:02;;;;;;;0.20;0.10;;;;;;;;;;4979450;28;20072;-80
2022/12/10 02:37:30;;;;;;;0.20;0.10;;;;;;;;;;4964369;28;20034;-79
2022/12/10 02:39:58;;;;;;;0.20;0.10;;;;;;;;;;4982145;28;20049;-80
2022/12/10 02:42:25;;;;;;;0.20;0.10;;;;;;;;;;4970403;28;20045;-79
2022/12/10 02:44:52;;;;;;;0.20;0.10;;;;;;;;;;4977468;28;20095;-79
2022/12/10 02:47:19;;;;;;;0.20;0.10;;;;;;;;;;4996329;28;20046;-79
2022/12/10 02:49:47;;;;;;;0.20;0.10;;;;;;;;;;4977254;28;20041;-78
2022/12/10 02:52:14;;;;;;;0.20;0.10;;;;;;;;;;4998318;28;20041;-79
2022/12/10 02:54:48;;;;;;;0.20;0.10;;;;;;;;;;4966699;28;20735;-79
2022/12/10 02:57:23;;;;;;;0.20;0.10;;;;;;;;;;4982980;28;20525;-79
2022/12/10 02:59:49;;;;;;;0.20;0.10;;;;;;;;;;4975295;28;20034;-79
2022/12/10 03:02:20;;;;;;;0.20;0.10;;;;;;;;;;4976213;28;20051;-78
2022/12/10 03:05:09;;;;;;;0.20;0.20;;;;;;;;;;4997703;28;20042;-79
2022/12/10 03:07:35;;;;;;;0.20;0.10;;;;;;;;;;4995023;28;20117;-79
2022/12/10 03:10:10;;;;;;;0.45;0.45;;;;;;;;;;4965753;28;20080;-79
2022/12/10 03:12:38;;;;;;;0.20;0.10;;;;;;;;;;4976097;28;20686;-79
2022/12/10 03:15:07;;;;;;;0.20;0.10;;;;;;;;;;4974476;28;20797;-79
2022/12/10 03:17:34;;;;;;;0.20;0.10;;;;;;;;;;4960014;28;20088;-79
2022/12/10 03:20:01;;;;;;;0.20;0.10;;;;;;;;;;4993172;28;20041;-79
2022/12/10 03:22:27;;;;;;;0.20;0.20;;;;;;;;;;4972081;28;20044;-78
2022/12/10 03:24:53;;;;;;;0.20;0.13;;;;;;;;;;4976998;28;20140;-79
2022/12/10 03:27:20;;;;;;;0.47;0.47;;;;;;;;;;4973308;28;20125;-79
2022/12/10 03:29:51;;;;;;;0.95;0.93;;;;;;;;;;4990165;28;20050;-78
2022/12/10 03:32:18;;;;;;;0.20;0.10;;;;;;;;;;4995171;28;20050;-77
2022/12/10 03:34:44;;;;;;;0.20;0.10;;;;;;;;;;4977823;28;20054;-79
2022/12/10 03:37:11;;;;;;;0.20;0.10;;;;;;;;;;4980041;28;20034;-79
2022/12/10 03:39:38;;;;;;;0.20;0.10;;;;;;;;;;4980808;28;20050;-79
2022/12/10 03:42:05;;;;;;;3.00;2.80;;;;;;;;;;4978167;28;20575;-80
2022/12/10 03:44:32;;;;;;;0.20;0.10;;;;;;;;;;4982631;28;20042;-79
2022/12/10 03:46:58;;;;;;;0.38;0.38;;;;;;;;;;4983647;28;20158;-78
2022/12/10 03:49:24;;;;;;;0.20;0.10;;;;;;;;;;4987262;28;20050;-78
2022/12/10 03:51:50;;;;;;;0.20;0.10;;;;;;;;;;5004187;28;20095;-78
2022/12/10 03:54:16;;;;;;;0.20;0.10;;;;;;;;;;5005013;28;20049;-78
2022/12/10 03:56:42;;;;;;;0.20;0.10;;;;;;;;;;4986053;28;20603;-78
2022/12/10 03:59:08;;;;;;;0.20;0.10;;;;;;;;;;4966432;28;20042;-79
2022/12/10 04:01:34;;;;;;;0.20;0.10;;;;;;;;;;4986786;28;20046;-78
2022/12/10 04:04:00;;;;;;;0.20;0.10;;;;;;;;;;4983187;28;20044;-78
2022/12/10 04:06:26;;;;;;;0.20;0.10;;;;;;;;;;4979470;28;20038;-79
2022/12/10 04:08:53;;;;;;;0.20;0.10;;;;;;;;;;5004791;28;20034;-79
2022/12/10 04:11:19;;;;;;;0.20;0.10;;;;;;;;;;4986255;28;20064;-79
2022/12/10 04:16:31;;;;;;;0.20;0.10;;;;;;;;;;4977887;28;20054;-78
2022/12/10 04:19:01;;;;;;;0.20;0.10;;;;;;;;;;4979742;28;20045;-78
2022/12/10 04:26:59;;;;;;;0.20;0.10;;;;;;;;;;4997478;28;20054;-78
2022/12/10 04:29:29;;;;;;;0.20;0.10;;;;;;;;;;4977504;28;20064;-79
2022/12/10 04:31:56;;;;;;;0.20;0.10;;;;;;;;;;4977984;28;20048;-79
2022/12/10 04:34:23;;;;;;;0.20;0.10;;;;;;;;;;4979449;28;20061;-78
2022/12/10 04:36:49;;;;;;;0.20;0.10;;;;;;;;;;4976913;28;20096;-79
2022/12/10 04:39:15;;;;;;;0.20;0.10;;;;;;;;;;4976061;28;20057;-77
2022/12/10 04:41:42;;;;;;;0.20;0.10;;;;;;;;;;4975429;28;20068;-79
2022/12/10 04:44:08;;;;;;;0.20;0.10;;;;;;;;;;4965733;28;20034;-79
2022/12/10 04:46:35;;;;;;;0.28;0.28;;;;;;;;;;4998574;28;20046;-79
2022/12/10 04:49:01;;;;;;;0.20;0.10;;;;;;;;;;4982015;28;20062;-78
2022/12/10 04:51:27;;;;;;;0.20;0.10;;;;;;;;;;4966419;28;20029;-79
2022/12/10 04:53:53;;;;;;;0.20;0.10;;;;;;;;;;4992729;28;20042;-79
2022/12/10 04:56:19;;;;;;;0.20;0.10;;;;;;;;;;4976612;28;20052;-78
2022/12/10 04:58:45;;;;;;;0.20;0.10;;;;;;;;;;4978998;28;20049;-78
2022/12/10 05:01:12;;;;;;;0.20;0.10;;;;;;;;;;4982240;28;20051;-78
2022/12/10 05:03:38;;;;;;;0.20;0.10;;;;;;;;;;4963023;28;21002;-80
2022/12/10 05:06:06;;;;;;;0.20;0.10;;;;;;;;;;4979557;28;20542;-79
2022/12/10 05:08:32;;;;;;;0.20;0.10;;;;;;;;;;4980015;28;20042;-79
2022/12/10 05:11:02;;;;;;;0.20;0.10;;;;;;;;;;4981357;28;20065;-79
2022/12/10 05:13:28;;;;;;;0.20;0.10;;;;;;;;;;4962961;28;20041;-78
2022/12/10 05:15:54;;;;;;;0.40;0.28;;;;;;;;;;4989785;28;20144;-79
2022/12/10 05:18:20;;;;;;;0.20;0.10;;;;;;;;;;4958133;28;20386;-78
2022/12/10 05:20:46;;;;;;;0.20;0.17;;;;;;;;;;4975865;28;20500;-79
2022/12/10 05:23:30;;;;;;;0.20;0.10;;;;;;;;;;4975019;28;20068;-79
2022/12/10 05:26:00;;;;;;;0.20;0.10;;;;;;;;;;4980775;28;20421;-78
2022/12/10 05:28:27;;;;;;;0.20;0.10;;;;;;;;;;4977443;28;20046;-79
2022/12/10 05:30:53;;;;;;;0.20;0.10;;;;;;;;;;4994770;28;20126;-78
2022/12/10 05:33:19;;;;;;;0.20;0.10;;;;;;;;;;4976496;28;20050;-80
2022/12/10 05:35:52;;;;;;;0.20;0.10;;;;;;;;;;4956924;28;20053;-80
2022/12/10 05:38:18;;;;;;;0.20;0.17;;;;;;;;;;4993549;28;20041;-78
2022/12/10 05:40:44;;;;;;;0.20;0.10;;;;;;;;;;4969575;28;20396;-79
2022/12/10 05:43:10;;;;;;;0.20;0.10;;;;;;;;;;4983979;28;20042;-79
2022/12/10 05:45:36;;;;;;;0.20;0.10;;;;;;;;;;4986128;28;20053;-80
2022/12/10 05:48:02;;;;;;;0.20;0.10;;;;;;;;;;4979540;28;20042;-80
2022/12/10 05:50:28;;;;;;;0.20;0.10;;;;;;;;;;4970274;28;20042;-79
2022/12/10 05:52:54;;;;;;;0.20;0.10;;;;;;;;;;4966425;28;20159;-79
2022/12/10 05:55:20;;;;;;;0.30;0.22;;;;;;;;;;4998488;28;20107;-79
2022/12/10 05:57:46;;;;;;;0.85;0.85;;;;;;;;;;4981250;28;20049;-79
2022/12/10 06:00:12;;;;;;;0.20;0.10;;;;;;;;;;4985075;28;20121;-79
2022/12/10 06:02:38;;;;;;;0.20;0.10;;;;;;;;;;4966629;28;22001;-79
2022/12/10 06:05:04;;;;;;;0.20;0.10;;;;;;;;;;4980087;28;20406;-79
2022/12/10 06:07:31;;;;;;;0.20;0.10;;;;;;;;;;4964787;28;20042;-80
2022/12/10 06:09:57;;;;;;;0.20;0.10;;;;;;;;;;4964474;28;20065;-78
2022/12/10 06:12:23;;;;;;;0.20;0.10;;;;;;;;;;4976388;28;20488;-80
2022/12/10 06:14:49;;;;;;;0.30;0.30;;;;;;;;;;4972574;28;20125;-79
2022/12/10 06:17:15;;;;;;;0.20;0.10;;;;;;;;;;4963760;28;21349;-79
2022/12/10 06:19:41;;;;;;;0.20;0.10;;;;;;;;;;4973528;28;20136;-79
2022/12/10 06:22:07;;;;;;;0.20;0.10;;;;;;;;;;4975235;28;20130;-78
2022/12/10 06:24:33;;;;;;;0.30;0.30;;;;;;;;;;4989552;28;20030;-79
2022/12/10 06:26:59;;;;;;;0.20;0.13;;;;;;;;;;4962051;28;20607;-79
2022/12/10 06:29:25;;;;;;;0.20;0.10;;;;;;;;;;4964339;28;20602;-79
2022/12/10 06:31:51;;;;;;;0.20;0.10;;;;;;;;;;4976904;28;21105;-78
2022/12/10 06:34:17;;;;;;;0.20;0.10;;;;;;;;;;4980230;28;20045;-79
2022/12/10 06:36:43;;;;;;;0.20;0.10;;;;;;;;;;4997050;28;20064;-77
2022/12/10 06:39:09;;;;;;;0.20;0.10;;;;;;;;;;4980261;28;20045;-79
2022/12/10 06:41:35;;;;;;;0.20;0.10;;;;;;;;;;4976508;28;20056;-79
2022/12/10 06:44:01;;;;;;;0.20;0.10;;;;;;;;;;4963596;28;20045;-78
2022/12/10 06:46:28;;;;;;;0.20;0.10;;;;;;;;;;4971135;28;20046;-79
2022/12/10 06:48:54;;;;;;;0.20;0.10;;;;;;;;;;4959209;28;20068;-80
2022/12/10 06:51:20;;;;;;;0.20;0.15;;;;;;;;;;4963595;28;20045;-80
2022/12/10 06:53:46;;;;;;;0.52;0.52;;;;;;;;;;4996516;28;20046;-80
2022/12/10 06:56:13;;;;;;;0.20;0.10;;;;;;;;;;4977806;28;20045;-80
2022/12/10 06:58:41;;;;;;;0.20;0.00;;;;;;;;;;4990079;28;20034;-79
2022/12/10 07:01:09;;;;;;;0.20;0.10;;;;;;;;;;4992234;28;20121;-79
2022/12/10 07:03:35;;;;;;;0.20;0.10;;;;;;;;;;4969760;28;20053;-79
2022/12/10 07:06:02;;;;;;;0.20;0.10;;;;;;;;;;4976907;28;20038;-80
2022/12/10 07:08:28;;;;;;;0.20;0.20;;;;;;;;;;4974767;28;20048;-78
2022/12/10 07:10:54;;;;;;;0.20;0.17;;;;;;;;;;4975689;28;20451;-78
2022/12/10 07:13:21;;;;;;;0.20;0.10;;;;;;;;;;4973836;28;20045;-79
2022/12/10 07:15:47;;;;;;;0.20;0.10;;;;;;;;;;4977336;28;20080;-77
2022/12/10 07:18:13;;;;;;;0.20;0.10;;;;;;;;;;5002606;28;20038;-79
2022/12/10 07:20:39;;;;;;;0.20;0.10;;;;;;;;;;4984051;28;20701;-80
2022/12/10 07:23:05;;;;;;;0.20;0.10;;;;;;;;;;4986036;28;20052;-80
2022/12/10 07:25:31;;;;;;;0.20;0.10;;;;;;;;;;4984228;28;20052;-80
2022/12/10 07:27:57;;;;;;;0.20;0.10;;;;;;;;;;4973837;28;20034;-80
2022/12/10 07:30:23;;;;;;;0.20;0.10;;;;;;;;;;4983910;28;20060;-78
2022/12/10 07:32:49;;;;;;;0.47;0.47;;;;;;;;;;4968884;28;20061;-78
2022/12/10 07:35:15;;;;;;;0.20;0.10;;;;;;;;;;4968804;28;20404;-79
2022/12/10 07:37:41;;;;;;;0.20;0.10;;;;;;;;;;4962756;28;20041;-78
2022/12/10 07:40:07;;;;;;;0.20;0.10;;;;;;;;;;4980211;28;20330;-78
2022/12/10 07:42:33;;;;;;;0.20;0.10;;;;;;;;;;4983024;28;20111;-79
2022/12/10 07:44:59;;;;;;;0.20;0.10;;;;;;;;;;4983640;28;20124;-78
2022/12/10 07:47:25;;;;;;;0.20;0.10;;;;;;;;;;5002673;28;20060;-79
2022/12/10 07:49:51;;;;;;;0.20;0.10;;;;;;;;;;4967879;28;20046;-80
2022/12/10 07:52:17;;;;;;;0.40;0.40;;;;;;;;;;5002469;28;20040;-80
2022/12/10 07:54:43;;;;;;;1.77;1.67;;;;;;;;;;4968882;28;20117;-79
2022/12/10 07:57:09;;;;;;;0.20;0.10;;;;;;;;;;4985438;28;20673;-79
2022/12/10 07:59:35;;;;;;;0.20;0.10;;;;;;;;;;4986532;28;20046;-80
2022/12/10 08:02:01;;;;;;;0.20;0.10;;;;;;;;;;4987657;28;20041;-78
2022/12/10 08:04:30;;;;;;;0.20;0.10;;;;;;;;;;4996922;28;20034;-80
2022/12/10 08:06:57;;;;;;;0.25;0.25;;;;;;;;;;4984566;28;20147;-80
2022/12/10 08:09:23;;;;;;;0.20;0.10;;;;;;;;;;4985960;28;20419;-79
2022/12/10 08:11:49;;;;;;;0.52;0.52;;;;;;;;;;4981537;28;20061;-80
2022/12/10 08:14:15;;;;;;;0.20;0.20;;;;;;;;;;5000701;28;20034;-79
2022/12/10 08:16:41;;;;;;;0.20;0.10;;;;;;;;;;4974297;28;20101;-78
2022/12/10 08:19:07;;;;;;;0.20;0.10;;;;;;;;;;4986320;28;20033;-78
2022/12/10 08:21:33;;;;;;;0.20;0.10;;;;;;;;;;4960468;28;20436;-79
2022/12/10 08:24:00;;;;;;;0.20;0.10;;;;;;;;;;4969885;28;20054;-79
2022/12/10 08:26:28;;;;;;;0.20;0.10;;;;;;;;;;4975535;28;20042;-79
2022/12/10 08:28:55;;;;;;;0.20;0.17;;;;;;;;;;4977021;28;20144;-79
2022/12/10 08:31:21;;;;;;;0.20;0.10;;;;;;;;;;4984725;28;20042;-79
2022/12/10 08:33:47;;;;;;;0.20;0.10;;;;;;;;;;4984857;28;20058;-80
2022/12/10 08:36:15;;;;;;;0.20;0.10;;;;;;;;;;4982146;28;20037;-81
2022/12/10 08:38:42;;;;;;;0.20;0.10;;;;;;;;;;4944950;28;20038;-80
2022/12/10 08:41:12;;;;;;;0.20;0.10;;;;;;;;;;4954755;28;20045;-79
2022/12/10 08:43:39;;;;;;;0.20;0.10;;;;;;;;;;4948781;28;20026;-79
2022/12/10 08:46:05;;;;;;;0.20;0.10;;;;;;;;;;4972103;28;20046;-80
2022/12/10 08:48:31;;;;;;;0.20;0.10;;;;;;;;;;4971730;28;20042;-79
2022/12/10 08:50:57;;;;;;;2.60;2.40;;;;;;;;;;4964828;28;20076;-80
2022/12/10 08:53:23;;;;;;;0.20;0.10;;;;;;;;;;4954532;28;20065;-81
2022/12/10 08:55:50;;;;;;;0.90;0.90;;;;;;;;;;4970915;28;20042;-79
2022/12/10 08:58:16;;;;;;;0.85;0.85;;;;;;;;;;4974815;28;20043;-81
2022/12/10 09:00:42;;;;;;;0.20;0.10;;;;;;;;;;4961433;28;20121;-80
2022/12/10 09:03:09;;;;;;;0.20;0.10;;;;;;;;;;4960897;28;20042;-80
2022/12/10 09:05:35;;;;;;;0.20;0.10;;;;;;;;;;4958148;28;20053;-80
2022/12/10 09:08:01;;;;;;;0.20;0.10;;;;;;;;;;4972395;28;20045;-80
2022/12/10 09:10:27;;;;;;;0.20;0.10;;;;;;;;;;4986048;28;20034;-81
2022/12/10 09:12:53;;;;;;;0.20;0.10;;;;;;;;;;4948064;28;20500;-80
2022/12/10 09:15:19;;;;;;;2.92;2.08;;;;;;;;;;4957535;28;20148;-79
2022/12/10 09:17:45;;;;;;;0.57;0.57;;;;;;;;;;4944006;28;20042;-80
2022/12/10 09:20:12;;;;;;;0.20;0.10;;;;;;;;;;4945882;28;20045;-80
2022/12/10 09:22:38;;;;;;;0.47;0.47;;;;;;;;;;4968867;28;21244;-80
2022/12/10 09:25:05;;;;;;;0.20;0.10;;;;;;;;;;4978143;28;20978;-81
2022/12/10 09:27:32;;;;;;;1.55;1.45;;;;;;;;;;4974265;28;20125;-79
2022/12/10 09:29:58;;;;;;;0.20;0.10;;;;;;;;;;4972919;28;20053;-80
2022/12/10 09:32:24;;;;;;;0.20;0.10;;;;;;;;;;4977372;28;20056;-79
2022/12/10 09:34:54;;;;;;;0.20;0.10;;;;;;;;;;4997171;28;20034;-80
2022/12/10 09:37:20;;;;;;;0.20;0.10;;;;;;;;;;4980500;28;20524;-80
2022/12/10 09:39:46;;;;;;;0.20;0.10;;;;;;;;;;4967345;28;20042;-80
2022/12/10 09:42:21;;;;;;;0.20;0.10;;;;;;;;;;4965845;28;20050;-79
2022/12/10 09:44:56;;;;;;;0.40;0.40;;;;;;;;;;4975140;28;20046;-80
2022/12/10 09:47:26;;;;;;;0.20;0.10;;;;;;;;;;4976739;28;20061;-79
2022/12/10 09:49:55;;;;;;;0.20;0.10;;;;;;;;;;4979688;28;20046;-79
2022/12/10 09:52:23;;;;;;;0.35;0.35;;;;;;;;;;4960760;28;20744;-80
2022/12/10 09:54:53;;;;;;;0.20;0.10;;;;;;;;;;4958001;28;20055;-80
2022/12/10 09:57:28;;;;;;;0.30;0.30;;;;;;;;;;4978145;28;20048;-81
2022/12/10 09:59:55;;;;;;;0.20;0.10;;;;;;;;;;4968306;28;20046;-80
2022/12/10 10:02:29;;;;;;;0.20;0.10;;;;;;;;;;4974316;28;20069;-78
2022/12/10 10:04:58;;;;;;;0.70;0.70;;;;;;;;;;4957584;28;20794;-79
2022/12/10 10:07:26;;;;;;;0.20;0.10;;;;;;;;;;4981274;28;20038;-79
2022/12/10 10:10:03;;;;;;;0.20;0.20;;;;;;;;;;4993397;28;20045;-80
2022/12/10 10:12:32;;;;;;;1.13;0.90;;;;;;;;;;4977553;28;20053;-79
2022/12/10 10:14:58;;;;;;;0.20;0.15;;;;;;;;;;4971950;28;20045;-80
2022/12/10 10:17:30;;;;;;;0.50;0.45;;;;;;;;;;4990810;28;20046;-80
2022/12/10 10:19:56;;;;;;;0.75;0.75;;;;;;;;;;4998422;28;20046;-78
2022/12/10 10:22:22;;;;;;;0.20;0.10;;;;;;;;;;4991325;28;20068;-81
2022/12/10 10:24:48;;;;;;;0.20;0.10;;;;;;;;;;4975692;28;21172;-81
2022/12/10 10:27:23;;;;;;;0.20;0.15;;;;;;;;;;4980539;28;20042;-79
2022/12/10 10:29:53;;;;;;;0.20;0.20;;;;;;;;;;4996993;28;20046;-79
2022/12/10 10:32:20;;;;;;;0.20;0.10;;;;;;;;;;4995192;28;20042;-80
2022/12/10 10:34:47;;;;;;;0.73;0.65;;;;;;;;;;4998042;28;20041;-79
2022/12/10 10:37:21;;;;;;;0.20;0.20;;;;;;;;;;4976597;28;20045;-79
2022/12/10 10:39:49;;;;;;;0.47;0.47;;;;;;;;;;5000949;28;20046;-79
2022/12/10 10:42:21;;;;;;;0.20;0.10;;;;;;;;;;5006150;28;20049;-79
2022/12/10 10:44:47;;;;;;;0.20;0.10;;;;;;;;;;4997092;28;20101;-80
2022/12/10 10:47:30;;;;;;;0.50;0.50;;;;;;;;;;5006355;28;20073;-81
2022/12/10 10:49:59;;;;;;;0.20;0.10;;;;;;;;;;4985541;28;20050;-80
2022/12/10 10:52:28;;;;;;;0.20;0.20;;;;;;;;;;4997584;28;20037;-80
2022/12/10 10:54:54;;;;;;;0.20;0.10;;;;;;;;;;5010591;28;20165;-79
2022/12/10 10:57:23;;;;;;;0.20;0.10;;;;;;;;;;5018312;28;20061;-80
2022/12/10 10:59:51;;;;;;;1.85;1.63;;;;;;;;;;5000778;28;20050;-81
2022/12/10 11:02:22;;;;;;;2.05;0.68;;;;;;;;;;5004979;28;20038;-80
2022/12/10 11:04:53;;;;;;;0.20;0.10;;;;;;;;;;5019199;28;20092;-79
2022/12/10 11:07:21;;;;;;;0.45;0.45;;;;;;;;;;5010989;28;20064;-79
2022/12/10 11:09:48;;;;;;;0.20;0.10;;;;;;;;;;4978781;28;20046;-80
2022/12/10 11:12:41;;;;;;;0.25;0.25;;;;;;;;;;4962412;28;20054;-82
2022/12/10 11:15:27;;;;;;;1.55;1.45;;;;;;;;;;5000835;28;20065;-80
2022/12/10 11:17:54;;;;;;;0.20;0.10;;;;;;;;;;5001615;28;20042;-80
2022/12/10 11:20:22;;;;;;;0.20;0.10;;;;;;;;;;5013722;28;20057;-80
2022/12/10 11:22:59;;;;;;;0.20;0.20;;;;;;;;;;4969059;28;20030;-80
2022/12/10 11:25:34;;;;;;;2.92;2.75;;;;;;;;;;4993909;28;20052;-83
2022/12/10 11:28:20;;;;;;;0.20;0.10;;;;;;;;;;4993181;28;20042;-81
2022/12/10 11:30:50;;;;;;;0.20;0.10;;;;;;;;;;4994445;28;20045;-80
2022/12/10 11:33:37;;;;;;;0.20;0.13;;;;;;;;;;5014895;28;20041;-81
2022/12/10 11:36:15;;;;;;;0.20;0.10;;;;;;;;;;5017057;28;20041;-81
2022/12/10 11:38:55;;;;;;;0.20;0.20;;;;;;;;;;5017262;28;20042;-80
2022/12/10 11:41:27;;;;;;;0.30;0.30;;;;;;;;;;5017381;28;20038;-82
2022/12/10 11:43:56;;;;;;;1.17;1.17;;;;;;;;;;5004385;28;20034;-82
2022/12/10 11:46:28;;;;;;;0.20;0.17;;;;;;;;;;5006346;28;20042;-80
2022/12/10 11:49:13;;;;;;;0.20;0.20;;;;;;;;;;4996641;28;20052;-79
2022/12/10 11:51:42;;;;;;;0.57;0.55;;;;;;;;;;5005608;28;20091;-82
2022/12/10 11:54:14;;;;;;;0.20;0.20;;;;;;;;;;5016483;28;20054;-81
2022/12/10 11:56:51;;;;;;;0.20;0.10;;;;;;;;;;4999902;28;20072;-82
2022/12/10 11:59:31;;;;;;;0.85;0.85;;;;;;;;;;4997297;28;20038;-83
2022/12/10 12:02:01;;;;;;;0.20;0.10;;;;;;;;;;4983355;28;20057;-83
2022/12/10 12:04:46;;;;;;;0.90;0.90;;;;;;;;;;4982150;28;20046;-82
2022/12/10 12:07:21;;;;;;;0.38;0.38;;;;;;;;;;4997581;28;21864;-82
2022/12/10 12:10:00;;;;;;;1.98;1.88;;;;;;;;;;4980235;28;20115;-84
2022/12/10 12:12:29;;;;;;;0.50;0.50;;;;;;;;;;5011860;28;22084;-81
2022/12/10 12:14:57;;;;;;;0.20;0.10;;;;;;;;;;4990493;28;20048;-81
2022/12/10 12:17:34;;;;;;;0.68;0.68;;;;;;;;;;4986327;28;20123;-84
2022/12/10 12:20:08;;;;;;;0.20;0.20;;;;;;;;;;4958163;28;20032;-85
2022/12/10 12:22:36;;;;;;;0.20;0.10;;;;;;;;;;4962770;28;20061;-82
2022/12/10 12:25:05;;;;;;;0.20;0.10;;;;;;;;;;4985931;28;20103;-81
2022/12/10 12:27:34;;;;;;;0.20;0.10;;;;;;;;;;4997105;28;20127;-81
2022/12/10 12:30:03;;;;;;;2.42;1.85;;;;;;;;;;4985864;28;20062;-81
2022/12/10 12:32:53;;;;;;;0.20;0.10;;;;;;;;;;4995910;28;20038;-81
2022/12/10 12:35:38;;;;;;;0.20;0.10;;;;;;;;;;4964814;28;20101;-81
2022/12/10 12:38:17;;;;;;;0.20;0.10;;;;;;;;;;5016476;28;20644;-81
2022/12/10 12:40:49;;;;;;;0.20;0.10;;;;;;;;;;4998521;28;20037;-81
2022/12/10 12:43:18;;;;;;;0.20;0.15;;;;;;;;;;5012916;28;21296;-81
2022/12/10 12:45:46;;;;;;;0.20;0.10;;;;;;;;;;4984796;28;20722;-82
2022/12/10 12:48:12;;;;;;;0.20;0.10;;;;;;;;;;4970950;28;20048;-81
2022/12/10 12:50:38;;;;;;;0.20;0.10;;;;;;;;;;4990653;28;20076;-81
2022/12/10 12:53:06;;;;;;;0.20;0.10;;;;;;;;;;4987056;28;20627;-81
2022/12/10 12:55:37;;;;;;;0.20;0.10;;;;;;;;;;4993380;28;20049;-82
2022/12/10 12:58:22;;;;;;;0.20;0.10;;;;;;;;;;4976138;28;20078;-82
2022/12/10 13:00:50;;;;;;;0.20;0.10;;;;;;;;;;4985671;28;20608;-81
2022/12/10 13:03:37;;;;;;;0.20;0.10;;;;;;;;;;4987832;28;20733;-82
2022/12/10 13:06:14;;;;;;;1.85;1.75;;;;;;;;;;5003165;28;20042;-82
2022/12/10 13:08:44;;;;;;;0.20;0.10;;;;;;;;;;5006133;28;20057;-82
2022/12/10 13:11:10;;;;;;;0.20;0.10;;;;;;;;;;4984794;28;20084;-83
2022/12/10 13:13:38;;;;;;;0.20;0.10;;;;;;;;;;5008919;28;20042;-81
2022/12/10 13:16:33;;;;;;;0.20;0.10;;;;;;;;;;4980595;28;20156;-81
2022/12/10 13:19:18;;;;;;;0.20;0.10;;;;;;;;;;4984213;28;20081;-82
2022/12/10 13:22:01;;;;;;;0.20;0.10;;;;;;;;;;5001264;28;20042;-83
2022/12/10 13:24:36;;;;;;;0.20;0.10;;;;;;;;;;4999359;28;20543;-83
2022/12/10 13:27:15;;;;;;;0.20;0.10;;;;;;;;;;5001954;28;20042;-82
2022/12/10 13:29:44;;;;;;;1.30;1.20;;;;;;;;;;4981456;28;20049;-81
2022/12/10 13:32:15;;;;;;;0.20;0.10;;;;;;;;;;4979853;28;20030;-81
2022/12/10 13:34:41;;;;;;;0.20;0.10;;;;;;;;;;4986717;28;20213;-82
2022/12/10 13:37:14;;;;;;;0.50;0.50;;;;;;;;;;4984336;28;20054;-83
2022/12/10 13:39:40;;;;;;;;;;;;;;;;;;5000922;28;20042;-81
2022/12/10 13:44:59;;;;;;;0.20;0.10;;;;;;;;;;4990473;28;20073;-81
2022/12/10 13:47:46;;;;;;;0.20;0.10;;;;;;;;;;5017248;28;20044;-82
2022/12/10 13:50:21;;;;;;;0.20;0.10;;;;;;;;;;4996952;28;20109;-81
2022/12/10 13:53:08;;;;;;;0.20;0.10;;;;;;;;;;5013400;28;20049;-80
2022/12/10 13:55:38;;;;;;;0.20;0.10;;;;;;;;;;4976064;28;20034;-82
2022/12/10 13:58:21;;;;;;;0.20;0.20;;;;;;;;;;4998392;28;20053;-81
2022/12/10 14:00:47;;;;;;;0.40;0.40;;;;;;;;;;4973686;28;20029;-82
2022/12/10 14:03:13;;;;;;;1.20;1.08;;;;;;;;;;4991311;28;20049;-81
2022/12/10 14:05:48;;;;;;;0.20;0.10;;;;;;;;;;4994037;28;20037;-81
2022/12/10 14:08:18;;;;;;;0.20;0.20;;;;;;;;;;5003127;28;20408;-81
2022/12/10 14:10:45;;;;;;;0.20;0.10;;;;;;;;;;5001754;28;20084;-81
2022/12/10 14:13:15;;;;;;;1.38;1.27;;;;;;;;;;4983509;28;20404;-81
2022/12/10 14:15:47;;;;;;;0.20;0.10;;;;;;;;;;4996160;28;20141;-81
2022/12/10 14:18:15;;;;;;;0.43;0.40;;;;;;;;;;4986541;28;20046;-83
2022/12/10 14:20:48;;;;;;;0.20;0.20;;;;;;;;;;5006367;28;20045;-81
2022/12/10 14:23:33;;;;;;;0.20;0.10;;;;;;;;;;4998095;28;20097;-83
2022/12/10 14:26:07;;;;;;;4.68;3.83;;;;;;;;;;4981367;28;20052;-81
2022/12/10 14:29:02;;;;;;;0.35;0.30;;;;;;;;;;5004992;28;20087;-81
2022/12/10 14:31:29;;;;;;;0.20;0.10;;;;;;;;;;4978011;28;20053;-80
2022/12/10 14:33:57;;;;;;;0.20;0.10;;;;;;;;;;4972119;28;20120;-82
2022/12/10 14:36:28;;;;;;;0.20;0.10;;;;;;;;;;4989027;28;20037;-84
2022/12/10 14:38:54;;;;;;;0.20;0.20;;;;;;;;;;4991432;28;20046;-82
2022/12/10 14:41:22;;;;;;;0.20;0.10;;;;;;;;;;4994504;28;20526;-83
2022/12/10 14:43:48;;;;;;;0.20;0.20;;;;;;;;;;4983836;28;20057;-82
2022/12/10 14:46:17;;;;;;;1.50;1.40;;;;;;;;;;4991176;28;20041;-80
2022/12/10 14:48:44;;;;;;;0.20;0.10;;;;;;;;;;4994915;28;20030;-81
2022/12/10 14:51:13;;;;;;;0.20;0.10;;;;;;;;;;4973969;28;20049;-83
2022/12/10 14:53:40;;;;;;;1.13;1.13;;;;;;;;;;5005187;28;20057;-82
2022/12/10 14:56:07;;;;;;;0.63;0.60;;;;;;;;;;5003806;28;20036;-81
2022/12/10 14:58:41;;;;;;;0.20;0.10;;;;;;;;;;4989990;28;20120;-81
2022/12/10 15:01:13;;;;;;;0.22;0.15;;;;;;;;;;4979927;28;20662;-83
2022/12/10 15:03:45;;;;;;;0.47;0.47;;;;;;;;;;4960500;28;20042;-81
2022/12/10 15:06:14;;;;;;;0.35;0.35;;;;;;;;;;4984566;28;20042;-80